createdAt,value
2022-12-14T00:00:18.991Z,22.60
2022-12-14T00:02:50.564Z,21.95
2022-12-14T00:05:22.050Z,20.55
2022-12-14T00:07:53.494Z,21.52
2022-12-14T00:10:24.931Z,20.73
2022-12-14T00:12:57.836Z,20.45
2022-12-14T00:15:29.541Z,21.30
2022-12-14T00:18:01.042Z,20.80
2022-12-14T00:20:33.836Z,20.77
2022-12-14T00:23:05.261Z,20.55
2022-12-14T00:25:36.734Z,20.00
2022-12-14T00:28:08.136Z,21.45
2022-12-14T00:30:39.537Z,21.77
2022-12-14T00:33:10.934Z,20.27
2022-12-14T00:35:42.391Z,21.60
2022-12-14T00:38:13.765Z,19.87
2022-12-14T00:40:45.223Z,20.20
2022-12-14T00:43:16.735Z,18.98
2022-12-14T00:45:48.148Z,19.48
2022-12-14T00:48:20.997Z,20.00
2022-12-14T00:50:54.336Z,19.23
2022-12-14T00:53:25.989Z,19.90
2022-12-14T00:55:57.545Z,19.85
2022-12-14T00:58:29.410Z,19.52
2022-12-14T01:01:07.024Z,19.70
2022-12-14T01:03:38.555Z,19.65
2022-12-14T01:06:22.772Z,19.98
2022-12-14T01:08:54.226Z,19.15
2022-12-14T01:11:25.629Z,19.45
2022-12-14T01:13:57.070Z,19.88
2022-12-14T01:16:28.542Z,20.05
2022-12-14T01:19:00.666Z,19.77
2022-12-14T01:21:32.527Z,19.23
2022-12-14T01:24:05.829Z,19.13
2022-12-14T01:26:39.045Z,19.17
2022-12-14T01:29:11.497Z,19.52
2022-12-14T01:31:43.242Z,19.70
2022-12-14T01:34:14.713Z,19.92
2022-12-14T01:36:46.348Z,19.00
2022-12-14T01:39:17.775Z,19.25
2022-12-14T01:41:50.774Z,17.98
2022-12-14T01:44:22.127Z,18.70
2022-12-14T01:46:58.375Z,18.27
2022-12-14T01:49:47.351Z,17.13
2022-12-14T01:52:27.892Z,19.00
2022-12-14T01:55:04.348Z,17.20
2022-12-14T01:57:59.968Z,17.45
2022-12-14T02:00:31.630Z,18.10
2022-12-14T02:03:37.427Z,17.90
2022-12-14T02:06:14.310Z,17.90
2022-12-14T02:08:48.260Z,17.57
2022-12-14T02:11:35.843Z,17.30
2022-12-14T02:14:07.237Z,16.67
2022-12-14T02:16:39.947Z,16.63
2022-12-14T02:19:11.385Z,17.23
2022-12-14T02:21:42.809Z,17.23
2022-12-14T02:24:30.881Z,17.85
2022-12-14T02:27:12.565Z,17.45
2022-12-14T02:30:04.940Z,16.73
2022-12-14T02:32:57.560Z,15.30
2022-12-14T02:36:10.532Z,16.15
2022-12-14T02:39:13.858Z,16.42
2022-12-14T02:41:57.345Z,16.35
2022-12-14T02:44:31.424Z,16.48
2022-12-14T02:47:23.589Z,16.13
2022-12-14T02:50:13.828Z,16.15
2022-12-14T02:53:04.128Z,16.45
2022-12-14T02:55:42.181Z,17.10
2022-12-14T02:58:23.684Z,17.40
2022-12-14T03:00:56.436Z,17.20
2022-12-14T03:03:28.309Z,16.92
2022-12-14T03:06:04.157Z,17.33
2022-12-14T03:08:36.335Z,16.98
2022-12-14T03:11:23.997Z,17.90
2022-12-14T03:14:04.646Z,18.67
2022-12-14T03:16:44.692Z,17.35
2022-12-14T03:19:29.900Z,18.25
2022-12-14T03:22:11.038Z,17.33
2022-12-14T03:24:50.984Z,18.02
2022-12-14T03:27:34.564Z,17.98
2022-12-14T03:30:10.641Z,17.73
2022-12-14T03:32:52.555Z,17.08
2022-12-14T03:35:29.122Z,18.00
2022-12-14T03:38:13.596Z,18.55
2022-12-14T03:41:11.377Z,17.55
2022-12-14T03:44:11.279Z,16.52
2022-12-14T03:47:06.153Z,17.50
2022-12-14T03:49:56.514Z,18.00
2022-12-14T03:52:40.067Z,17.65
2022-12-14T03:55:26.814Z,17.77
2022-12-14T03:58:16.988Z,17.90
2022-12-14T04:01:03.432Z,17.52
2022-12-14T04:03:48.565Z,17.60
2022-12-14T04:06:46.413Z,19.02
2022-12-14T04:09:38.555Z,18.47
2022-12-14T04:12:18.880Z,19.17
2022-12-14T04:15:20.282Z,17.90
2022-12-14T04:17:59.880Z,18.25
2022-12-14T04:20:59.477Z,18.17
2022-12-14T04:23:51.873Z,17.13
2022-12-14T04:26:28.848Z,17.77
2022-12-14T04:29:05.577Z,18.58
2022-12-14T04:31:41.250Z,18.23
2022-12-14T04:34:16.009Z,18.50
2022-12-14T04:36:58.247Z,17.73
2022-12-14T04:39:53.801Z,17.30
2022-12-14T04:42:33.781Z,17.98
2022-12-14T04:45:12.518Z,17.85
2022-12-14T04:47:59.428Z,18.00
2022-12-14T04:50:44.302Z,17.52
2022-12-14T04:53:40.121Z,17.42
2022-12-14T04:56:53.910Z,16.75
2022-12-14T04:59:26.176Z,17.90
2022-12-14T05:02:10.550Z,18.20
2022-12-14T05:05:35.233Z,18.38
2022-12-14T05:08:22.070Z,17.85
2022-12-14T05:11:48.004Z,17.50
2022-12-14T05:16:53.147Z,17.15
2022-12-14T05:19:27.527Z,17.73
2022-12-14T05:22:12.454Z,17.13
2022-12-14T05:27:36.494Z,16.65
2022-12-14T05:30:11.866Z,17.10
2022-12-14T05:32:44.768Z,16.77
2022-12-14T05:35:17.121Z,17.92
2022-12-14T05:37:51.329Z,18.40
2022-12-14T05:40:27.664Z,16.13
2022-12-14T05:43:07.529Z,16.25
2022-12-14T05:45:39.071Z,16.52
2022-12-14T05:48:19.344Z,16.17
2022-12-14T05:50:53.272Z,16.98
2022-12-14T05:53:25.562Z,17.60
2022-12-14T05:55:59.045Z,15.55
2022-12-14T05:58:30.490Z,16.83
2022-12-14T06:01:04.478Z,16.67
2022-12-14T06:03:35.992Z,15.65
2022-12-14T06:06:10.135Z,16.60
2022-12-14T06:08:44.633Z,16.63
2022-12-14T06:11:21.797Z,16.27
2022-12-14T06:13:53.269Z,15.70
2022-12-14T06:16:25.701Z,16.60
2022-12-14T06:19:00.093Z,15.77
2022-12-14T06:21:34.459Z,16.88
2022-12-14T06:24:06.662Z,17.23
2022-12-14T06:26:38.954Z,16.50
2022-12-14T06:29:16.667Z,16.10
2022-12-14T06:31:49.004Z,17.05
2022-12-14T06:34:26.349Z,17.20
2022-12-14T06:36:59.817Z,16.73
2022-12-14T06:39:31.350Z,17.20
2022-12-14T06:42:02.901Z,16.27
2022-12-14T06:44:34.698Z,15.60
2022-12-14T06:47:06.111Z,15.55
2022-12-14T06:49:37.551Z,15.85
2022-12-14T06:52:10.293Z,16.50
2022-12-14T06:54:41.731Z,16.40
2022-12-14T06:57:13.163Z,15.20
2022-12-14T06:59:44.592Z,16.77
2022-12-14T07:02:16.215Z,16.02
2022-12-14T07:04:47.814Z,16.02
2022-12-14T07:07:19.224Z,15.35
2022-12-14T07:09:50.694Z,15.65
2022-12-14T07:12:22.089Z,15.52
2022-12-14T07:14:54.393Z,15.87
2022-12-14T07:17:25.853Z,16.55
2022-12-14T07:19:57.265Z,16.20
2022-12-14T07:22:28.693Z,15.52
2022-12-14T07:25:00.143Z,16.10
2022-12-14T07:27:31.566Z,15.52
2022-12-14T07:30:03.171Z,17.92
2022-12-14T07:32:34.620Z,14.70
2022-12-14T07:35:07.851Z,15.73
2022-12-14T07:37:41.828Z,15.68
2022-12-14T07:40:13.331Z,16.57
2022-12-14T07:42:48.548Z,15.45
2022-12-14T07:45:19.920Z,15.23
2022-12-14T07:47:51.349Z,14.40
2022-12-14T07:50:22.906Z,14.55
2022-12-14T07:52:54.306Z,14.90
2022-12-14T07:55:25.753Z,14.93
2022-12-14T07:57:57.138Z,14.60
2022-12-14T08:00:28.588Z,15.40
2022-12-14T08:03:00.004Z,14.40
2022-12-14T08:05:31.432Z,15.38
2022-12-14T08:08:02.897Z,15.13
2022-12-14T08:10:40.025Z,14.60
2022-12-14T08:13:11.876Z,14.18
2022-12-14T08:15:43.325Z,14.98
2022-12-14T08:18:14.731Z,15.38
2022-12-14T08:20:53.382Z,15.95
2022-12-14T08:23:25.008Z,16.17
2022-12-14T08:25:58.116Z,15.93
2022-12-14T08:28:30.998Z,15.23
2022-12-14T08:31:07.793Z,16.20
2022-12-14T08:33:40.074Z,14.27
2022-12-14T08:36:19.202Z,15.23
2022-12-14T08:38:57.946Z,14.55
2022-12-14T08:41:29.882Z,15.13
2022-12-14T08:44:03.001Z,15.02
2022-12-14T08:46:35.513Z,14.75
2022-12-14T08:49:07.051Z,15.43
2022-12-14T08:51:38.488Z,15.35
2022-12-14T08:54:10.089Z,14.60
2022-12-14T08:56:41.539Z,14.77
2022-12-14T08:59:30.255Z,14.98
2022-12-14T09:02:04.832Z,14.38
2022-12-14T09:04:36.426Z,15.20
2022-12-14T09:07:07.819Z,15.73
2022-12-14T09:09:39.269Z,14.52
2022-12-14T09:12:10.698Z,14.82
2022-12-14T09:14:42.174Z,15.27
2022-12-14T09:17:13.601Z,14.13
2022-12-14T09:19:45.232Z,14.65
2022-12-14T09:22:16.642Z,13.90
2022-12-14T09:27:19.589Z,14.35
2022-12-14T09:29:51.132Z,14.35
2022-12-14T09:32:22.587Z,14.82
2022-12-14T09:34:54.005Z,14.98
2022-12-14T09:37:25.618Z,14.50
2022-12-14T09:39:57.007Z,15.32
2022-12-14T09:42:37.260Z,14.80
2022-12-14T09:45:29.765Z,15.10
2022-12-14T09:48:18.495Z,13.90
2022-12-14T09:50:52.679Z,14.68
2022-12-14T09:53:25.471Z,14.32
2022-12-14T09:55:58.450Z,15.00
2022-12-14T09:58:31.830Z,14.35
2022-12-14T10:01:03.599Z,14.05
2022-12-14T10:04:08.971Z,14.68
2022-12-14T10:06:58.596Z,15.13
2022-12-14T10:09:35.933Z,15.20
2022-12-14T10:12:34.342Z,15.10
2022-12-14T10:15:12.360Z,14.25
2022-12-14T10:17:59.070Z,14.48
2022-12-14T10:20:46.440Z,13.82
2022-12-14T10:23:23.163Z,14.52
2022-12-14T10:26:00.637Z,13.60
2022-12-14T10:28:45.077Z,14.30
2022-12-14T10:31:32.967Z,14.27
2022-12-14T10:34:31.894Z,14.10
2022-12-14T10:37:18.776Z,13.32
2022-12-14T10:40:10.823Z,14.02
2022-12-14T10:42:55.618Z,13.40
2022-12-14T10:46:00.023Z,13.77
2022-12-14T10:48:48.149Z,12.80
2022-12-14T10:51:40.422Z,13.10
2022-12-14T10:54:25.306Z,13.03
2022-12-14T10:56:56.841Z,12.13
2022-12-14T10:59:36.675Z,12.27
2022-12-14T11:02:15.198Z,12.57
2022-12-14T11:05:00.594Z,12.70
2022-12-14T11:07:31.934Z,13.13
2022-12-14T11:10:17.420Z,13.05
2022-12-14T11:13:05.847Z,11.95
2022-12-14T11:15:39.751Z,13.40
2022-12-14T11:18:17.359Z,13.70
2022-12-14T11:20:51.909Z,13.70
2022-12-14T11:23:29.458Z,13.68
2022-12-14T11:26:03.733Z,13.80
2022-12-14T11:28:50.686Z,14.57
2022-12-14T11:31:36.677Z,12.95
2022-12-14T11:34:22.347Z,11.83
2022-12-14T11:36:54.072Z,12.03
2022-12-14T11:39:25.924Z,12.43
2022-12-14T11:41:57.273Z,11.38
2022-12-14T11:44:36.483Z,12.40
2022-12-14T11:47:25.334Z,12.70
2022-12-14T11:49:57.156Z,11.38
2022-12-14T11:52:37.807Z,11.27
2022-12-14T11:55:15.215Z,11.50
2022-12-14T11:57:52.464Z,11.60
2022-12-14T12:00:27.284Z,11.05
2022-12-14T12:03:05.377Z,10.57
2022-12-14T12:05:41.598Z,11.43
2022-12-14T12:08:27.121Z,71.35
2022-12-14T12:11:02.377Z,33.10
2022-12-14T12:13:42.045Z,20.13
2022-12-14T12:16:16.944Z,11.10
2022-12-14T12:18:54.228Z,9.23
2022-12-14T12:21:35.827Z,8.57
2022-12-14T12:24:20.136Z,9.00
2022-12-14T12:27:07.774Z,9.70
2022-12-14T12:29:54.167Z,8.93
2022-12-14T12:32:42.641Z,8.95
2022-12-14T12:35:16.529Z,8.35
2022-12-14T12:37:57.038Z,7.90
2022-12-14T12:41:00.722Z,8.13
2022-12-14T12:43:39.072Z,8.13
2022-12-14T12:46:13.247Z,8.43
2022-12-14T12:48:53.546Z,9.10
2022-12-14T12:51:44.116Z,8.18
2022-12-14T12:54:53.509Z,8.10
2022-12-14T12:57:30.997Z,8.18
2022-12-14T13:00:02.673Z,8.45
2022-12-14T13:02:39.063Z,7.57
2022-12-14T13:05:44.638Z,7.80
2022-12-14T13:08:14.052Z,7.45
2022-12-14T13:11:17.217Z,7.83
2022-12-14T13:13:45.381Z,7.60
2022-12-14T13:16:26.287Z,7.22
2022-12-14T13:19:40.987Z,7.93
2022-12-14T13:22:06.348Z,8.13
2022-12-14T13:24:38.856Z,8.45
2022-12-14T13:27:31.691Z,8.45
2022-12-14T13:30:38.567Z,8.13
2022-12-14T13:33:15.868Z,8.30
2022-12-14T13:35:56.421Z,8.70
2022-12-14T13:39:05.669Z,8.50
2022-12-14T13:41:42.976Z,8.18
2022-12-14T13:44:44.765Z,7.35
2022-12-14T13:47:20.792Z,7.32
2022-12-14T13:50:26.848Z,8.10
2022-12-14T13:52:48.980Z,7.18
2022-12-14T13:55:29.794Z,7.40
2022-12-14T13:58:22.269Z,6.60
2022-12-14T14:00:59.824Z,6.33
2022-12-14T14:03:34.097Z,5.75
2022-12-14T14:06:15.051Z,6.28
2022-12-14T14:08:49.555Z,5.47
2022-12-14T14:11:43.604Z,6.10
2022-12-14T14:14:26.098Z,5.87
2022-12-14T14:17:03.413Z,5.57
2022-12-14T14:19:41.479Z,6.10
2022-12-14T14:22:23.678Z,5.90
2022-12-14T14:25:09.319Z,5.90
2022-12-14T14:27:50.311Z,5.97
2022-12-14T14:30:28.584Z,6.25
2022-12-14T14:33:35.898Z,6.55
2022-12-14T14:35:52.141Z,5.93
2022-12-14T14:38:46.312Z,6.10
2022-12-14T14:41:30.121Z,6.20
2022-12-14T14:44:07.689Z,6.40
2022-12-14T14:46:46.247Z,6.10
2022-12-14T14:49:40.346Z,6.45
2022-12-14T14:52:44.978Z,6.18
2022-12-14T14:58:33.511Z,8.13
2022-12-14T15:01:26.158Z,6.40
2022-12-14T15:04:23.900Z,7.20
2022-12-14T15:07:02.248Z,6.70
2022-12-14T15:09:39.236Z,7.03
2022-12-14T15:12:30.772Z,7.50
2022-12-14T15:15:06.417Z,8.13
2022-12-14T15:17:37.850Z,7.80
2022-12-14T15:20:40.013Z,7.68
2022-12-14T15:23:14.388Z,7.97
2022-12-14T15:25:45.879Z,8.00
2022-12-14T15:28:22.749Z,9.15
2022-12-14T15:30:57.461Z,8.30
2022-12-14T15:33:33.245Z,8.10
2022-12-14T15:36:14.630Z,8.77
2022-12-14T15:38:54.803Z,9.68
2022-12-14T15:41:29.067Z,9.13
2022-12-14T15:44:00.675Z,9.38
2022-12-14T15:46:35.495Z,8.32
2022-12-14T15:49:07.901Z,8.75
2022-12-14T15:51:42.145Z,8.15
2022-12-14T15:54:21.181Z,8.05
2022-12-14T15:56:58.633Z,9.77
2022-12-14T15:59:34.861Z,9.60
2022-12-14T16:02:30.317Z,10.10
2022-12-14T16:05:03.654Z,8.98
2022-12-14T16:07:39.285Z,9.80
2022-12-14T16:10:26.503Z,9.75
2022-12-14T16:13:06.932Z,9.43
2022-12-14T16:15:38.449Z,8.57
2022-12-14T16:18:14.141Z,9.60
2022-12-14T16:20:54.574Z,10.32
2022-12-14T16:23:33.378Z,10.32
2022-12-14T16:26:14.206Z,10.38
2022-12-14T16:28:45.616Z,10.15
2022-12-14T16:31:22.537Z,9.60
2022-12-14T16:34:16.372Z,10.88
2022-12-14T16:37:08.012Z,11.20
2022-12-14T16:39:45.727Z,10.95
2022-12-14T16:42:31.167Z,12.10
2022-12-14T16:45:02.657Z,10.65
2022-12-14T16:47:34.057Z,12.13
2022-12-14T16:50:47.661Z,12.27
2022-12-14T16:53:17.594Z,10.63
2022-12-14T16:56:01.476Z,10.93
2022-12-14T16:58:34.940Z,11.48
2022-12-14T17:01:09.150Z,11.93
2022-12-14T17:03:40.757Z,11.73
2022-12-14T17:06:22.750Z,12.35
2022-12-14T17:08:54.138Z,12.00
2022-12-14T17:11:25.593Z,11.73
2022-12-14T17:13:57.145Z,13.23
2022-12-14T17:16:28.656Z,13.57
2022-12-14T17:19:00.190Z,12.13
2022-12-14T17:21:31.758Z,12.75
2022-12-14T17:24:03.308Z,13.43
2022-12-14T17:26:34.718Z,13.30
2022-12-14T17:29:11.812Z,13.93
2022-12-14T17:31:49.819Z,14.20
2022-12-14T17:34:23.635Z,13.57
2022-12-14T17:36:55.235Z,13.45
2022-12-14T17:39:26.664Z,13.70
2022-12-14T17:41:58.109Z,14.60
2022-12-14T17:44:29.713Z,15.00
2022-12-14T17:47:01.166Z,15.00
2022-12-14T17:49:32.656Z,16.90
2022-12-14T17:52:06.437Z,15.82
2022-12-14T17:54:37.840Z,14.60
2022-12-14T17:57:22.892Z,15.50
2022-12-14T17:59:54.306Z,15.93
2022-12-14T18:02:31.087Z,16.02
2022-12-14T18:05:02.927Z,16.30
2022-12-14T18:07:34.344Z,17.10
2022-12-14T18:10:06.120Z,17.67
2022-12-14T18:12:37.560Z,18.05
2022-12-14T18:15:29.474Z,15.95
2022-12-14T18:18:00.932Z,16.20
2022-12-14T18:20:32.421Z,16.63
2022-12-14T18:23:03.830Z,16.35
2022-12-14T18:25:43.284Z,15.73
2022-12-14T18:28:20.030Z,15.27
2022-12-14T18:30:56.432Z,14.48
2022-12-14T18:33:28.622Z,14.25
2022-12-14T18:36:00.965Z,15.13
2022-12-14T18:38:32.403Z,15.73
2022-12-14T18:41:04.964Z,14.55
2022-12-14T18:43:40.303Z,14.40
2022-12-14T18:46:15.385Z,16.17
2022-12-14T18:48:47.006Z,14.25
2022-12-14T18:51:21.811Z,14.82
2022-12-14T18:53:58.178Z,14.60
2022-12-14T18:56:29.617Z,14.90
2022-12-14T18:59:01.080Z,15.93
2022-12-14T19:01:32.604Z,14.32
2022-12-14T19:04:04.415Z,15.47
2022-12-14T19:06:44.861Z,14.35
2022-12-14T19:09:16.835Z,13.38
2022-12-14T19:11:48.386Z,13.40
2022-12-14T19:14:21.244Z,14.65
2022-12-14T19:16:53.678Z,14.60
2022-12-14T19:19:31.197Z,16.17
2022-12-14T19:22:09.008Z,15.07
2022-12-14T19:24:40.533Z,18.33
2022-12-14T19:27:12.127Z,20.95
2022-12-14T19:29:43.668Z,19.67
2022-12-14T19:32:15.109Z,19.45
2022-12-14T19:34:47.634Z,18.75
2022-12-14T19:37:20.417Z,19.00
2022-12-14T19:39:53.404Z,18.55
2022-12-14T19:42:25.205Z,18.52
2022-12-14T19:44:56.631Z,16.52
2022-12-14T19:47:28.082Z,18.88
2022-12-14T19:49:59.477Z,18.40
2022-12-14T19:52:30.932Z,17.83
2022-12-14T19:55:02.541Z,15.57
2022-12-14T19:57:33.957Z,16.23
2022-12-14T20:00:08.413Z,17.17
2022-12-14T20:02:40.059Z,18.63
2022-12-14T20:05:11.675Z,16.85
2022-12-14T20:07:44.009Z,19.23
2022-12-14T20:10:15.612Z,18.45
2022-12-14T20:12:47.022Z,19.92
2022-12-14T20:15:18.456Z,20.57
2022-12-14T20:17:49.880Z,19.67
2022-12-14T20:20:23.017Z,20.38
2022-12-14T20:22:54.663Z,20.45
2022-12-14T20:25:26.053Z,22.33
2022-12-14T20:27:57.464Z,18.57
2022-12-14T20:30:29.216Z,18.30
2022-12-14T20:33:00.788Z,18.25
2022-12-14T20:35:33.437Z,18.20
2022-12-14T20:38:04.913Z,18.65
2022-12-14T20:40:38.920Z,16.58
2022-12-14T20:43:11.004Z,15.43
2022-12-14T20:45:43.394Z,15.88
2022-12-14T20:48:14.829Z,14.35
2022-12-14T20:50:50.400Z,13.45
2022-12-14T20:53:22.581Z,13.15
2022-12-14T20:55:54.060Z,12.95
2022-12-14T20:58:25.500Z,6.95
2022-12-14T21:00:56.967Z,8.00
2022-12-14T21:03:29.020Z,9.23
2022-12-14T21:06:00.933Z,7.70
2022-12-14T21:08:32.392Z,6.20
2022-12-14T21:11:03.891Z,5.32
2022-12-14T21:13:35.318Z,6.55
2022-12-14T21:16:09.622Z,8.07
2022-12-14T21:18:41.115Z,5.40
2022-12-14T21:21:12.575Z,4.72
2022-12-14T21:23:44.013Z,5.22
2022-12-14T21:26:15.498Z,6.45
2022-12-14T21:28:46.884Z,7.30
2022-12-14T21:31:18.353Z,5.95
2022-12-14T21:33:50.175Z,7.43
2022-12-14T21:36:21.840Z,6.95
2022-12-14T21:38:54.384Z,5.70
2022-12-14T21:41:25.780Z,5.30
2022-12-14T21:43:59.593Z,4.97
2022-12-14T21:46:31.226Z,5.18
2022-12-14T21:49:03.240Z,4.38
2022-12-14T21:51:34.666Z,4.75
2022-12-14T21:54:06.444Z,4.30
2022-12-14T21:56:38.881Z,4.72
2022-12-14T21:59:10.501Z,4.50
2022-12-14T22:01:42.447Z,4.88
2022-12-14T22:04:14.199Z,6.20
2022-12-14T22:06:45.702Z,5.20
2022-12-14T22:09:18.492Z,5.93
2022-12-14T22:11:50.144Z,6.17
2022-12-14T22:14:24.597Z,9.60
2022-12-14T22:16:56.013Z,8.65
2022-12-14T22:19:27.722Z,9.40
2022-12-14T22:21:59.317Z,8.57
2022-12-14T22:24:30.795Z,11.07
2022-12-14T22:27:02.247Z,11.98
2022-12-14T22:29:33.675Z,11.60
2022-12-14T22:32:05.660Z,10.88
2022-12-14T22:34:37.140Z,10.70
2022-12-14T22:37:08.616Z,10.32
2022-12-14T22:39:40.035Z,10.73
2022-12-14T22:42:11.445Z,11.15
2022-12-14T22:44:42.923Z,13.55
2022-12-14T22:47:14.472Z,13.53
2022-12-14T22:49:45.894Z,12.40
2022-12-14T22:52:22.869Z,11.48
2022-12-14T22:54:56.051Z,12.05
2022-12-14T22:57:28.112Z,11.35
2022-12-14T23:00:04.907Z,11.73
2022-12-14T23:02:36.533Z,10.57
2022-12-14T23:05:08.792Z,10.20
2022-12-14T23:07:40.192Z,9.15
2022-12-14T23:10:12.049Z,9.02
2022-12-14T23:12:43.484Z,9.70
2022-12-14T23:15:15.034Z,8.70
2022-12-14T23:17:46.470Z,9.05
2022-12-14T23:20:17.945Z,9.00
2022-12-14T23:22:49.710Z,9.27
2022-12-14T23:25:21.743Z,8.70
2022-12-14T23:27:53.197Z,8.75
2022-12-14T23:30:24.638Z,7.68
2022-12-14T23:32:57.306Z,7.68
2022-12-14T23:35:28.749Z,8.23
2022-12-14T23:38:07.378Z,6.68
2022-12-14T23:40:39.060Z,7.80
2022-12-14T23:43:16.327Z,9.20
2022-12-14T23:45:47.799Z,7.50
2022-12-14T23:48:19.308Z,6.57
2022-12-14T23:50:50.795Z,6.95
2022-12-14T23:53:22.198Z,7.18
2022-12-14T23:55:54.176Z,6.70
2022-12-14T23:58:25.590Z,5.53
